Data for 09/12/2018

Time Sea-Level Adjusted Pressure Absolute Pressure Temperature Relative Humidity Dew Point   
(mb) (inHg) (mb) (inHg) (C) (F) (%) (C) (F)
00:05 1014 29.94 843 24.89 14.2 57.5 38 0.3 32.5
00:10 1014 29.94 843 24.89 14.2 57.5 39 0.4 32.7
00:15 1014 29.94 843 24.89 14 57.1 40 0.6 33.1
00:20 1014 29.94 843 24.89 13.7 56.7 41 0.7 33.2
00:25 1014 29.94 843 24.89 13.6 56.5 41 0.6 33.2
00:30 1014 29.94 843 24.89 13.4 56.2 42 0.8 33.4
00:35 1014 29.94 843 24.89 13.4 56.1 42 0.7 33.3
00:40 1014 29.94 843 24.89 13.5 56.4 41 0.7 33.2
00:45 1014 29.94 843 24.89 13.8 56.8 40 0.6 33.1
00:50 1014 29.94 843 24.89 13.9 56.9 41 0.7 33.3
00:55 1014 29.94 843 24.89 13.7 56.7 41 0.8 33.5
01:00 1014 29.94 843 24.89 13.7 56.6 41 0.8 33.4
01:05 1014 29.94 843 24.89 13.6 56.5 41 0.7 33.3
01:10 1014 29.94 843 24.89 13.7 56.6 41 0.8 33.4
01:15 1014 29.94 843 24.89 13.7 56.6 41 0.9 33.5
01:20 1014 29.94 843 24.89 13.7 56.6 41 0.8 33.4
01:25 1014 29.94 843 24.89 13.7 56.6 42 0.9 33.7
01:30 1014 29.94 843 24.89 13.6 56.4 42 0.9 33.6
01:35 1014 29.94 843 24.89 13.5 56.4 42 0.9 33.7
01:40 1014 29.94 843 24.89 13.5 56.4 42 0.9 33.6
01:45 1014 29.94 843 24.89 13.4 56.2 43 1.1 34
01:50 1014 29.94 843 24.89 13.3 56 43 0.9 33.7
01:55 1013 29.91 843 24.89 13.3 56 43 1 33.7
02:00 1013 29.91 843 24.89 13.3 56 43 1 33.8
02:05 1013 29.91 843 24.89 13.4 56 43 1 33.9
02:10 1013 29.91 843 24.89 13.4 56.1 42 1 33.7
02:15 1013 29.91 843 24.89 13.5 56.2 43 1.1 34.1
02:20 1013 29.91 843 24.89 13.4 56.1 43 1.1 33.9
02:25 1013 29.91 842 24.86 13.3 56 43 1.3 34.3
02:30 1013 29.91 842 24.86 13.1 55.5 44 1.3 34.3
02:35 1013 29.91 842 24.86 12.8 55.1 45 1.3 34.4
02:40 1013 29.91 842 24.86 12.7 54.9 45 1.3 34.3
02:45 1013 29.91 842 24.86 12.7 54.9 45 1.2 34.2
02:50 1013 29.91 843 24.89 12.9 55.1 46 1.6 34.8
02:55 1014 29.94 843 24.89 12.9 55.2 45 1.2 34.1
03:00 1014 29.94 843 24.89 13.2 55.8 45 1.6 34.8
03:05 1013 29.91 843 24.89 13 55.4 45 1.5 34.7
03:10 1014 29.94 843 24.89 13.1 55.6 45 1.5 34.8
03:15 1014 29.94 843 24.89 13.1 55.6 46 1.8 35.3
03:20 1014 29.94 843 24.89 13.1 55.5 46 1.7 35.1
03:25 1014 29.94 843 24.89 12.9 55.2 46 1.5 34.8
03:30 1014 29.94 843 24.89 12.7 54.9 46 1.6 34.8
03:35 1014 29.94 843 24.89 12.6 54.7 47 1.6 34.9
03:40 1013 29.91 843 24.89 12.5 54.4 48 1.9 35.3
03:45 1013 29.91 843 24.89 12.3 54.1 49 2 35.5
03:50 1013 29.91 843 24.89 12.2 53.9 50 2.1 35.9
03:55 1014 29.94 843 24.89 12.1 53.8 51 2.3 36.1
04:00 1013 29.91 843 24.89 12.1 53.7 52 2.5 36.4
04:05 1013 29.91 842 24.86 12.1 53.8 51 2.4 36.3
04:10 1013 29.91 842 24.86 12 53.7 50 2.1 35.7
04:15 1013 29.91 843 24.89 12 53.5 50 1.9 35.3
04:20 1013 29.91 843 24.89 11.9 53.5 50 1.9 35.4
04:25 1013 29.91 843 24.89 11.9 53.5 49 1.7 35.1
04:30 1013 29.91 843 24.89 12.1 53.9 49 1.8 35.2
04:35 1013 29.91 843 24.89 12.2 54 50 2.1 35.9
04:40 1013 29.91 843 24.89 12.3 54.1 49 2 35.6
04:45 1013 29.91 843 24.89 12.5 54.5 48 1.8 35.3
04:50 1014 29.94 843 24.89 12.6 54.7 48 2 35.5
04:55 1014 29.94 843 24.89 12.5 54.5 48 1.8 35.2
05:00 1014 29.94 843 24.89 12.4 54.3 48 1.7 35.1
05:05 1014 29.94 843 24.89 12.2 54 49 1.7 35.1
05:10 1014 29.94 843 24.89 12.1 53.7 49 1.7 35.1
05:15 1014 29.94 843 24.89 11.9 53.4 50 1.8 35.2
05:20 1014 29.94 843 24.89 11.7 53.1 50 1.6 34.8
05:25 1014 29.94 843 24.89 11.7 53 49 1.3 34.4
05:30 1014 29.94 843 24.89 11.7 53 49 1.4 34.4
05:35 1014 29.94 843 24.89 11.6 52.9 49 1.3 34.3
05:40 1014 29.94 843 24.89 11.5 52.8 49 1.3 34.3
05:45 1014 29.94 843 24.89 11.5 52.7 49 1.3 34.4
05:50 1014 29.94 843 24.89 11.3 52.3 51 1.5 34.6
05:55 1014 29.94 843 24.89 11 51.9 51 1.4 34.4
06:00 1014 29.94 843 24.89 10.9 51.7 52 1.5 34.6
06:05 1014 29.94 843 24.89 11.2 52.1 50 1.3 34.3
06:10 1014 29.94 843 24.89 11.3 52.4 50 1.3 34.3
06:15 1014 29.94 843 24.89 11.3 52.4 51 1.5 34.7
06:20 1014 29.94 843 24.89 11.1 52 51 1.4 34.5
06:25 1014 29.94 843 24.89 11 51.8 51 1.4 34.5
06:30 1014 29.94 843 24.89 10.8 51.5 52 1.5 34.6
06:35 1014 29.94 843 24.89 10.7 51.2 52 1.4 34.5
06:40 1014 29.94 843 24.89 10.7 51.2 53 1.4 34.6
06:45 1014 29.94 843 24.89 10.5 50.8 54 1.5 34.8
06:50 1014 29.94 843 24.89 10.3 50.6 54 1.5 34.7
06:55 1014 29.94 843 24.89 10.3 50.5 54 1.5 34.7
07:00 1014 29.94 843 24.89 10.3 50.5 54 1.5 34.6
07:05 1014 29.94 843 24.89 10.3 50.5 54 1.5 34.8
07:10 1014 29.94 843 24.89 10.2 50.4 55 1.5 34.7
07:15 1014 29.94 843 24.89 10.3 50.6 54 1.5 34.7
07:20 1013 29.91 843 24.89 10.4 50.6 54 1.6 34.8
07:25 1014 29.94 843 24.89 10.5 50.8 54 1.5 34.7
07:30 1014 29.94 843 24.89 10.5 50.9 54 1.7 35.1
07:35 1014 29.94 843 24.89 10.5 50.9 54 1.8 35.2
07:40 1013 29.91 843 24.89 10.6 51 53 1.5 34.7
07:45 1014 29.94 843 24.89 10.8 51.4 53 1.6 34.9
07:50 1014 29.94 843 24.89 10.8 51.5 54 1.8 35.3
07:55 1013 29.91 843 24.89 10.6 51.2 55 1.9 35.5
08:00 1014 29.94 843 24.89 10.5 50.9 55 2 35.6
08:05 1013 29.91 843 24.89 10.4 50.6 57 2.3 36.1
08:10 1013 29.91 843 24.89 10.2 50.3 57 2 35.6
08:15 1013 29.91 843 24.89 10.2 50.4 57 2 35.6
08:20 1013 29.91 843 24.89 10.3 50.5 57 2.1 35.8
08:25 1013 29.91 843 24.89 10.4 50.6 57 2.2 35.9
08:30 1013 29.91 843 24.89 10.5 50.8 57 2.5 36.4
08:35 1013 29.91 843 24.89 10.4 50.7 58 2.5 36.4
08:40 1013 29.91 843 24.89 10.4 50.7 58 2.4 36.3
08:45 1013 29.91 843 24.89 10.5 50.9 58 2.5 36.6
08:50 1013 29.91 843 24.89 10.6 51 57 2.6 36.6
08:55 1013 29.91 843 24.89 10.7 51.2 57 2.5 36.6
09:00 1013 29.91 843 24.89 10.9 51.6 56 2.5 36.6
09:05 1013 29.91 843 24.89 11.1 52.1 55 2.4 36.3
09:10 1014 29.94 843 24.89 11.3 52.3 55 2.6 36.6
09:15 1014 29.94 843 24.89 11.3 52.4 55 2.6 36.6
09:20 1013 29.91 843 24.89 11.6 52.9 55 2.8 37.1
09:25 1013 29.91 843 24.89 11.7 53 56 3.1 37.6
09:30 1014 29.94 843 24.89 11.5 52.7 57 3.3 38
09:35 1014 29.94 843 24.89 11.6 52.8 56 3.2 37.7
09:40 1013 29.91 843 24.89 11.5 52.7 58 3.5 38.3
09:45 1013 29.91 843 24.89 11.6 52.9 57 3.5 38.3
09:50 1013 29.91 843 24.89 11.4 52.6 57 3.2 37.8
09:55 1013 29.91 843 24.89 11.6 52.8 57 3.3 37.9
10:00 1013 29.91 843 24.89 12 53.5 55 3.3 38
10:05 1013 29.91 843 24.89 12 53.5 57 3.8 38.8
10:10 1013 29.91 843 24.89 11.8 53.3 58 3.8 38.8
10:15 1013 29.91 843 24.89 11.8 53.2 58 3.8 38.8
10:20 1013 29.91 843 24.89 11.6 52.9 58 3.6 38.5
10:25 1013 29.91 843 24.89 11.7 53.1 59 3.9 39.1
10:30 1013 29.91 843 24.89 12.2 53.9 56 3.6 38.5
10:35 1014 29.94 843 24.89 12.7 54.8 54 3.7 38.7
10:40 1014 29.94 843 24.89 12.8 55 53 3.6 38.5
10:45 1014 29.94 843 24.89 12.9 55.2 53 3.7 38.6
10:50 1014 29.94 843 24.89 12.6 54.7 54 3.6 38.4
10:55 1013 29.91 843 24.89 12.8 55 52 3.3 37.9
11:00 1013 29.91 843 24.89 12.9 55.3 53 3.7 38.6
11:05 1013 29.91 843 24.89 12.8 55.1 53 3.6 38.5
11:10 1013 29.91 843 24.89 13.1 55.6 51 3.3 37.9
11:15 1013 29.91 843 24.89 13.7 56.7 49 3.2 37.8
11:20 1013 29.91 843 24.89 13.9 57 51 3.9 39
11:25 1013 29.91 843 24.89 13.5 56.2 50 3.3 38
11:30 1013 29.91 843 24.89 13.8 56.9 49 3.3 38
11:35 1013 29.91 843 24.89 13.7 56.6 50 3.4 38.2
11:40 1014 29.94 843 24.89 14 57.2 47 3.1 37.5
11:45 1014 29.94 843 24.89 14 57.3 49 3.4 38.2
11:50 1014 29.94 843 24.89 14.1 57.3 47 2.9 37.3
11:55 1014 29.94 843 24.89 13.9 57 48 3.2 37.7
12:00 1014 29.94 843 24.89 13.7 56.7 47 2.8 37
12:05 1014 29.94 843 24.89 14.2 57.5 45 2.4 36.3
12:10 1014 29.94 843 24.89 14.5 58.1 43 2.1 35.7
12:15 1013 29.91 843 24.89 14.9 58.7 43 2.4 36.2
12:20 1013 29.91 843 24.89 15.1 59.3 42 2.5 36.4
12:25 1013 29.91 843 24.89 15.6 60 40 2.1 35.8
12:30 1013 29.91 843 24.89 15.9 60.6 41 2.9 37.1
12:35 1013 29.91 842 24.86 15.7 60.2 43 3.2 37.8
12:40 1013 29.91 842 24.86 15.7 60.3 41 2.8 37
12:45 1013 29.91 843 24.89 15.9 60.6 42 3.1 37.5
12:50 1013 29.91 843 24.89 16 60.9 43 3.5 38.3
12:55 1013 29.91 842 24.86 16.4 61.4 41 3.1 37.6
13:00 1013 29.91 842 24.86 15.7 60.3 43 3.3 38
13:05 1013 29.91 842 24.86 15.1 59.1 44 3.2 37.7
13:10 1013 29.91 842 24.86 16.2 61.2 41 3 37.4
13:15 1013 29.91 842 24.86 16.9 62.4 39 2.8 37.1
13:20 1013 29.91 842 24.86 17 62.6 38 2.6 36.7
13:25 1013 29.91 842 24.86 17.1 62.8 37 2.5 36.4
13:30 1013 29.91 842 24.86 17 62.7 37 2.3 36.2
13:35 1013 29.91 842 24.86 17.3 63.1 36 2.1 35.7
13:40 1013 29.91 842 24.86 17.5 63.5 34 1.7 35
13:45 1013 29.91 842 24.86 17.6 63.6 36 2.3 36.2
13:50 1013 29.91 842 24.86 17.4 63.3 36 2.4 36.2
13:55 1013 29.91 842 24.86 17.4 63.2 36 2.4 36.4
14:00 1013 29.91 842 24.86 18 64.3 34 1.8 35.3
14:05 1013 29.91 842 24.86 17.5 63.5 34 1.7 35
14:10 1013 29.91 842 24.86 17.6 63.6 35 2.1 35.9
14:15 1013 29.91 842 24.86 17.7 63.9 35 2.1 35.8
14:20 1013 29.91 842 24.86 17.5 63.4 36 2.3 36.2
14:25 1013 29.91 842 24.86 17.8 64.1 34 1.7 35.1
14:30 1013 29.91 842 24.86 17.8 64.1 35 2.2 35.9
14:35 1013 29.91 842 24.86 18.1 64.5 33 1.7 35.1
14:40 1013 29.91 842 24.86 18.2 64.8 33 1.7 35.1
14:45 1013 29.91 842 24.86 18.3 64.9 34 2.3 36.1
14:50 1013 29.91 842 24.86 18.4 65.2 32 1.6 35
14:55 1013 29.91 842 24.86 18.3 65 32 1.5 34.6
15:00 1013 29.91 842 24.86 18.4 65.1 32 1.6 34.9
15:05 1013 29.91 842 24.86 18.4 65.1 33 2 35.7
15:10 1013 29.91 842 24.86 18.5 65.3 33 2.1 35.8
15:15 1013 29.91 842 24.86 18 64.5 35 2.5 36.4
15:20 1013 29.91 842 24.86 17.9 64.1 34 1.8 35.2
15:25 1013 29.91 842 24.86 18.3 64.9 34 2.3 36.2
15:30 1013 29.91 842 24.86 17.9 64.3 34 2.1 35.8
15:35 1013 29.91 842 24.86 17.8 64.1 35 2.4 36.4
15:40 1013 29.91 842 24.86 17.7 63.9 37 2.9 37.2
15:45 1013 29.91 842 24.86 17.8 64 35 2.1 35.9
15:50 1013 29.91 842 24.86 18.1 64.6 35 2.3 36.2
15:55 1013 29.91 842 24.86 18.1 64.5 35 2.7 36.8
16:00 1012 29.88 842 24.86 17.7 63.8 36 2.4 36.3
16:05 1012 29.88 842 24.86 17.8 64.1 36 2.6 36.7
16:10 1012 29.88 842 24.86 17 62.5 39 3 37.4
16:15 1012 29.88 842 24.86 17.3 63.1 38 2.9 37.2
16:20 1013 29.91 842 24.86 17.5 63.5 37 2.6 36.7
16:25 1013 29.91 842 24.86 17.5 63.5 37 2.7 36.8
16:30 1013 29.91 842 24.86 17.5 63.6 37 2.9 37.2
16:35 1013 29.91 842 24.86 17.4 63.3 37 2.6 36.7
16:40 1013 29.91 842 24.86 17.3 63.1 38 3 37.4
16:45 1013 29.91 842 24.86 17.1 62.8 38 2.6 36.7
16:50 1013 29.91 842 24.86 16.8 62.3 38 2.4 36.2
16:55 1013 29.91 842 24.86 16.6 61.8 38 2.3 36.2
17:00 1013 29.91 843 24.89 16.5 61.7 38 2.4 36.3
17:05 1013 29.91 843 24.89 16.4 61.5 39 2.5 36.5
17:10 1014 29.94 843 24.89 16.2 61.2 39 2.3 36.1
17:15 1014 29.94 843 24.89 16 60.8 39 2.2 35.9
17:20 1014 29.94 843 24.89 16 60.8 40 2.4 36.4
17:25 1014 29.94 843 24.89 16 60.7 39 2.3 36.1
17:30 1014 29.94 843 24.89 15.9 60.5 41 2.6 36.7
17:35 1014 29.94 843 24.89 15.9 60.5 41 2.7 36.8
17:40 1014 29.94 844 24.92 15.3 59.5 42 2.7 36.8
17:45 1015 29.97 844 24.92 14.8 58.6 44 2.9 37.1
17:50 1015 29.97 844 24.92 14.3 57.7 46 3 37.3
17:55 1015 29.97 844 24.92 14.3 57.7 46 2.9 37.2
18:00 1015 29.97 844 24.92 14.3 57.8 46 2.9 37.2
18:05 1015 29.97 845 24.95 14.2 57.6 47 3.1 37.6
18:10 1016 30 845 24.95 13.8 56.8 49 3.4 38
18:15 1016 30 845 24.95 13.6 56.6 49 3.3 37.9
18:20 1016 30 845 24.95 13.4 56.1 50 3.4 38.1
18:25 1016 30 845 24.95 13.1 55.5 54 4 39.3
18:30 1016 30 845 24.95 12.8 55 56 4.3 39.8
18:35 1016 30 845 24.95 12.4 54.2 58 4.4 39.9
18:40 1016 30 845 24.95 12.3 54.1 58 4.3 39.8
18:45 1016 30 845 24.95 12 53.6 59 4.2 39.6
18:50 1016 30 845 24.95 11.9 53.4 58 4 39.2
18:55 1016 30 845 24.95 11.8 53.3 58 4 39.2
19:00 1016 30 845 24.95 11.7 53.1 59 3.9 39.1
19:05 1016 30 845 24.95 11.8 53.2 59 4 39.2
19:10 1016 30 845 24.95 11.7 53.1 59 4 39.1
19:15 1016 30 845 24.95 11.7 53 59 4 39.2
19:20 1016 30 845 24.95 11.6 52.8 60 4.1 39.4
19:25 1016 30 845 24.95 11.4 52.6 61 4.1 39.4
19:30 1016 30 846 24.98 11.3 52.4 61 4.2 39.5
19:35 1016 30 846 24.98 11.3 52.3 61 4.2 39.6
19:40 1016 30 845 24.95 11.3 52.3 61 4.1 39.3
19:45 1016 30 846 24.98 11.2 52.1 62 4.2 39.6
19:50 1016 30 846 24.98 11 51.8 63 4.3 39.7
19:55 1016 30 846 24.98 10.7 51.3 64 4.3 39.8
20:00 1016 30 846 24.98 10.7 51.2 66 4.5 40.1
20:05 1016 30 846 24.98 10.6 51 66 4.6 40.2
20:10 1017 30.03 846 24.98 10.5 50.9 66 4.4 40
20:15 1017 30.03 846 24.98 10.5 50.9 65 4.4 39.9
20:20 1017 30.03 846 24.98 10.5 51 65 4.3 39.7
20:25 1017 30.03 846 24.98 10.6 51.1 65 4.4 39.9
20:30 1017 30.03 846 24.98 10.7 51.2 64 4.1 39.4
20:35 1017 30.03 846 24.98 10.8 51.4 62 3.9 39.1
20:40 1017 30.03 846 24.98 10.8 51.4 61 3.6 38.6
20:45 1017 30.03 846 24.98 10.8 51.4 60 3.4 38.1
20:50 1017 30.03 846 24.98 10.9 51.7 59 3.4 38.1
20:55 1017 30.03 846 24.98 11.1 51.9 58 3.2 37.8
21:00 1017 30.03 846 24.98 11.1 51.9 58 3.2 37.7
21:05 1017 30.03 846 24.98 11.1 52 57 3 37.5
21:10 1017 30.03 846 24.98 11.1 52.1 58 3.2 37.8
21:15 1017 30.03 846 24.98 11.2 52.1 57 3.1 37.6
21:20 1017 30.03 846 24.98 11.1 52 57 2.9 37.3
21:25 1017 30.03 846 24.98 11 51.9 57 2.9 37.2
21:30 1017 30.03 846 24.98 11 51.8 61 3.8 38.8
21:35 1017 30.03 846 24.98 10.8 51.5 63 4.1 39.4
21:40 1016 30 846 24.98 10.8 51.4 63 4.2 39.5
21:45 1016 30 846 24.98 10.6 51.1 66 4.5 40
21:50 1016 30 846 24.98 10.3 50.6 66 4.4 39.9
21:55 1016 30 846 24.98 10.2 50.3 67 4.3 39.7
22:00 1016 30 846 24.98 10.1 50.2 66 4.1 39.4
22:05 1016 30 845 24.95 10.1 50.3 65 3.8 38.9
22:10 1016 30 845 24.95 10.1 50.2 64 3.8 38.8
22:15 1016 30 845 24.95 10.1 50.2 63 3.4 38.1
22:20 1016 30 845 24.95 10 50.1 62 3.2 37.7
22:25 1016 30 845 24.95 10 49.9 63 3.2 37.7
22:30 1016 30 845 24.95 9.9 49.8 64 3.4 38
22:35 1016 30 845 24.95 9.7 49.5 64 3.2 37.8
22:40 1016 30 845 24.95 9.5 49.2 64 3.1 37.5
22:45 1016 30 845 24.95 9.4 48.9 65 3.2 37.7
22:50 1016 30 845 24.95 9.2 48.5 64 2.8 37
22:55 1016 30 845 24.95 9.2 48.5 64 2.7 36.8
23:00 1016 30 845 24.95 9.2 48.5 63 2.6 36.7
23:05 1016 30 845 24.95 9.2 48.5 64 2.7 36.9
23:10 1016 30 845 24.95 9.1 48.4 64 2.7 36.9
23:15 1016 30 845 24.95 9.1 48.3 65 2.8 37.1
23:20 1016 30 845 24.95 9.1 48.3 65 2.9 37.2
23:25 1016 30 845 24.95 9.1 48.4 65 2.9 37.2
23:30 1016 30 845 24.95 9.2 48.6 65 2.9 37.3
23:35 1016 30 845 24.95 9.2 48.6 65 2.9 37.3
23:40 1016 30 845 24.95 9.2 48.6 65 3 37.4
23:45 1016 30 845 24.95 9.2 48.6 64 2.9 37.2
23:50 1016 30 845 24.95 9.3 48.7 64 2.9 37.2
23:55 1016 30 845 24.95 9.3 48.7 64 2.8 37
24:00 1016 30 845 24.95 9.3 48.7 64 2.8 37.1